首页
METAR-TAF:

METAR-TAF

机场 :

奥拉迪亚, 罗马尼亚

纬度: 47-03N, 经度: 021-56E, 海拔: 135米

当前天气观测

该预报发布于37分钟前的01:00 UTC
风速3节,风向
温度 14°C
湿度 100%
气压 1011 hPa
能见度10公里或以上

METAR: LROD 250100Z AUTO 36003KT 9999 BKN012/// 14/14 Q1011

时间: 04:37 (01:37 UTC)

预报

该预报发布于8小时和37分钟前的17:00 UTC
预报有效从24日的 18点(UTC)到 25日的 03点(UTC)
风速5节,风向西
能见度10公里或以上
散云层高于4000英尺, 积雨云.
短暂存在
从 24日的 18点(UTC)到 24日的 20点(UTC)
能見度: 5000
雷暴, 小雨
成为
从 24日的 20点(UTC)到 24日的 22点(UTC)

TAF: LROD 241700Z 2418/2503 28005KT 9999 SCT040CB TEMPO 2418/2420 5000 -TSRA BECMG 2420/2422 NSC

超过4000个机场的气象观测和天气预报(METAR&TAF报告)。

可查询的气象台以黄色和红色小点在地图上表示。

将鼠标移到小点上方,可查看气象台名称。

然后点击查看天气观测和预报。

如需切换地图:点击带黑十字的绿色按钮放大地图;点击带横线的绿色按钮缩小地图;或者点击绿色箭头查看邻近地区的地图。


METAR-TAF: